Rochelle, Georgia
Current Conditions -  °F | °C
As of 1:35 AM on Wednesday 26 Nov 2014 (Local Time) from KCKF Reporting Station
Moderate Rain Moderate Rain  
Wind Chill: 47°   Ceiling: 5000
Heat Index: 47°   Visibility: 10mi
Dew Point: 46°   Wind: 3mph
Humidity: 93%   Direction: 310°NW
Pressure: 30.03"   Gusts: NA
Location:  31.95°N, 83.46°W
Report Text: KCKF 260635Z AUTO 31003KT 10SM RA BKN050 OVC090 09/08 A3003 RMK AO2 T00850075
Loading
Personal Weather Stations






























Interactive Weather Map New forecast layout! Learn more

10-Day Weather Forecast

Advertisements
Track Severe Weather on mobile